createdAt,value
2023-01-25T00:00:48.488Z,1.55
2023-01-25T00:03:25.482Z,1.54
2023-01-25T00:06:02.356Z,1.54
2023-01-25T00:08:30.278Z,1.52
2023-01-25T00:10:58.676Z,1.48
2023-01-25T00:13:27.298Z,1.45
2023-01-25T00:16:01.079Z,1.42
2023-01-25T00:18:29.050Z,1.38
2023-01-25T00:20:56.841Z,1.37
2023-01-25T00:23:24.710Z,1.37
2023-01-25T00:25:58.987Z,1.34
2023-01-25T00:28:27.119Z,1.31
2023-01-25T00:30:59.035Z,1.27
2023-01-25T00:33:26.917Z,1.25
2023-01-25T00:35:57.943Z,1.23
2023-01-25T00:38:30.315Z,1.21
2023-01-25T00:40:58.805Z,1.16
2023-01-25T00:43:26.973Z,1.14
2023-01-25T00:46:00.864Z,1.12
2023-01-25T00:48:28.745Z,1.10
2023-01-25T00:51:00.808Z,1.08
2023-01-25T00:53:28.882Z,1.06
2023-01-25T00:55:56.858Z,1.05
2023-01-25T00:58:26.253Z,1.03
2023-01-25T01:00:55.476Z,1.01
2023-01-25T01:03:23.458Z,0.99
2023-01-25T01:06:01.754Z,0.97
2023-01-25T01:08:30.217Z,0.92
2023-01-25T01:11:02.022Z,0.89
2023-01-25T01:13:30.373Z,0.84
2023-01-25T01:16:00.986Z,0.81
2023-01-25T01:18:33.503Z,0.79
2023-01-25T01:21:01.647Z,0.76
2023-01-25T01:23:30.589Z,0.75
2023-01-25T01:26:05.666Z,0.75
2023-01-25T01:28:34.969Z,0.73
2023-01-25T01:31:04.473Z,0.72
2023-01-25T01:33:36.106Z,0.71
2023-01-25T01:36:10.863Z,0.69
2023-01-25T01:38:39.027Z,0.63
2023-01-25T01:41:07.102Z,0.59
2023-01-25T01:43:35.691Z,0.56
2023-01-25T01:46:05.643Z,0.54
2023-01-25T01:48:35.723Z,0.51
2023-01-25T01:51:22.474Z,0.49
2023-01-25T01:54:11.999Z,0.47
2023-01-25T01:56:42.222Z,0.46
2023-01-25T01:59:10.441Z,0.45
2023-01-25T02:01:38.687Z,0.42
2023-01-25T02:04:08.484Z,0.41
2023-01-25T02:06:39.526Z,0.40
2023-01-25T02:09:07.807Z,0.39
2023-01-25T02:11:36.026Z,0.37
2023-01-25T02:14:04.000Z,0.34
2023-01-25T02:16:31.920Z,0.29
2023-01-25T02:19:02.342Z,0.24
2023-01-25T02:21:33.849Z,0.22
2023-01-25T02:24:06.200Z,0.21
2023-01-25T02:26:34.247Z,0.21
2023-01-25T02:29:06.922Z,0.20
2023-01-25T02:31:35.181Z,0.21
2023-01-25T02:34:03.370Z,0.22
2023-01-25T02:36:33.163Z,0.23
2023-01-25T02:39:01.375Z,0.24
2023-01-25T02:41:39.442Z,0.26
2023-01-25T02:44:17.069Z,0.27
2023-01-25T02:46:45.337Z,0.28
2023-01-25T02:49:13.513Z,0.28
2023-01-25T02:51:45.169Z,0.30
2023-01-25T02:54:13.974Z,0.32
2023-01-25T02:56:42.234Z,0.33
2023-01-25T02:59:10.849Z,0.33
2023-01-25T03:01:40.460Z,0.34
2023-01-25T03:04:09.025Z,0.34
2023-01-25T03:06:37.803Z,0.33
2023-01-25T03:09:06.998Z,0.31
2023-01-25T03:11:35.076Z,0.32
2023-01-25T03:14:02.913Z,0.31
2023-01-25T03:16:31.682Z,0.32
2023-01-25T03:18:59.998Z,0.32
2023-01-25T03:21:29.100Z,0.34
2023-01-25T03:23:58.673Z,0.35
2023-01-25T03:26:28.113Z,0.36
2023-01-25T03:29:08.873Z,0.37
2023-01-25T03:31:39.073Z,0.39
2023-01-25T03:34:07.685Z,0.42
2023-01-25T03:36:38.627Z,0.43
2023-01-25T03:39:06.598Z,0.42
2023-01-25T03:41:38.978Z,0.41
2023-01-25T03:44:11.571Z,0.38
2023-01-25T03:46:40.168Z,0.35
2023-01-25T03:49:08.957Z,0.30
2023-01-25T03:51:37.111Z,0.26
2023-01-25T03:54:05.294Z,0.23
2023-01-25T03:56:35.388Z,0.22
2023-01-25T03:59:29.154Z,0.20
2023-01-25T04:01:57.328Z,0.20
2023-01-25T04:04:25.200Z,0.20
2023-01-25T04:06:53.902Z,0.19
2023-01-25T04:09:21.952Z,0.16
2023-01-25T04:11:52.112Z,0.13
2023-01-25T04:14:31.813Z,0.07
2023-01-25T04:17:05.595Z,0.03
2023-01-25T04:19:59.815Z,-0.03
2023-01-25T04:22:32.910Z,-0.08
2023-01-25T04:25:00.977Z,-0.12
2023-01-25T04:27:29.457Z,-0.17
2023-01-25T04:30:03.974Z,-0.22
2023-01-25T04:32:37.177Z,-0.26
2023-01-25T04:35:09.655Z,-0.29
2023-01-25T04:37:38.738Z,-0.31
2023-01-25T04:40:07.131Z,-0.36
2023-01-25T04:42:38.290Z,-0.41
2023-01-25T04:45:07.008Z,-0.45
2023-01-25T04:47:36.246Z,-0.48
2023-01-25T04:50:06.424Z,-0.51
2023-01-25T04:52:35.673Z,-0.54
2023-01-25T04:55:04.059Z,-0.58
2023-01-25T04:57:35.295Z,-0.61
2023-01-25T05:00:04.411Z,-0.64
2023-01-25T05:02:32.755Z,-0.69
2023-01-25T05:05:00.951Z,-0.73
2023-01-25T05:07:29.126Z,-0.77
2023-01-25T05:09:57.092Z,-0.81
2023-01-25T05:12:25.263Z,-0.86
2023-01-25T05:14:56.304Z,-0.89
2023-01-25T05:17:24.496Z,-0.94
2023-01-25T05:19:52.675Z,-1.00
2023-01-25T05:22:23.128Z,-1.05
2023-01-25T05:24:53.608Z,-1.08
2023-01-25T05:27:21.990Z,-1.13
2023-01-25T05:29:56.635Z,-1.18
2023-01-25T05:32:34.315Z,-1.23
2023-01-25T05:35:02.805Z,-1.29
2023-01-25T05:37:30.991Z,-1.34
2023-01-25T05:40:02.702Z,-1.37
2023-01-25T05:42:30.906Z,-1.42
2023-01-25T05:44:58.981Z,-1.44
2023-01-25T05:47:27.151Z,-1.47
2023-01-25T05:49:56.181Z,-1.50
2023-01-25T05:52:33.733Z,-1.52
2023-01-25T05:55:02.627Z,-1.52
2023-01-25T05:57:30.695Z,-1.52
2023-01-25T05:59:59.185Z,-1.54
2023-01-25T06:02:27.311Z,-1.54
2023-01-25T06:04:55.326Z,-1.54
2023-01-25T06:07:24.770Z,-1.55
2023-01-25T06:09:53.213Z,-1.53
2023-01-25T06:12:21.704Z,-1.48
2023-01-25T06:14:49.768Z,-1.45
2023-01-25T06:17:17.677Z,-1.43
2023-01-25T06:20:06.388Z,-1.38
2023-01-25T06:22:37.326Z,-1.29
2023-01-25T06:25:05.681Z,-1.20
2023-01-25T06:27:33.668Z,-1.16
2023-01-25T06:30:01.603Z,-1.12
2023-01-25T06:32:32.068Z,-1.09
2023-01-25T06:34:59.917Z,-1.08
2023-01-25T06:37:28.139Z,-1.08
2023-01-25T06:39:56.186Z,-1.02
2023-01-25T06:42:24.461Z,-1.00
2023-01-25T06:44:52.388Z,-0.99
2023-01-25T06:47:20.296Z,-0.94
2023-01-25T06:49:48.367Z,-0.92
2023-01-25T06:52:16.653Z,-0.89
2023-01-25T06:54:44.617Z,-0.85
2023-01-25T06:57:12.723Z,-0.81
2023-01-25T06:59:40.656Z,-0.80
2023-01-25T07:02:14.359Z,-0.80
2023-01-25T07:04:42.529Z,-0.78
2023-01-25T07:07:10.519Z,-0.75
2023-01-25T07:09:38.775Z,-0.71
2023-01-25T07:12:07.366Z,-0.67
2023-01-25T07:14:35.449Z,-0.64
2023-01-25T07:17:04.083Z,-0.62
2023-01-25T07:19:32.193Z,-0.58
2023-01-25T07:22:00.006Z,-0.54
2023-01-25T07:24:29.682Z,-0.51
2023-01-25T07:26:57.583Z,-0.48
2023-01-25T07:29:25.707Z,-0.45
2023-01-25T07:31:53.719Z,-0.44
2023-01-25T07:34:22.064Z,-0.42
2023-01-25T07:36:50.026Z,-0.40
2023-01-25T07:39:18.403Z,-0.33
2023-01-25T07:41:46.494Z,-0.25
2023-01-25T07:44:15.365Z,-0.17
2023-01-25T07:46:53.274Z,-0.11
2023-01-25T07:49:21.168Z,-0.05
2023-01-25T07:51:49.005Z,0.01
2023-01-25T07:54:17.488Z,0.04
2023-01-25T07:56:45.763Z,0.09
2023-01-25T07:59:14.451Z,0.14
2023-01-25T08:01:42.419Z,0.17
2023-01-25T08:04:10.492Z,0.22
2023-01-25T08:06:39.487Z,0.27
2023-01-25T08:09:20.198Z,0.34
2023-01-25T08:11:49.593Z,0.43
2023-01-25T08:14:18.036Z,0.51
2023-01-25T08:16:45.913Z,0.59
2023-01-25T08:19:14.894Z,0.65
2023-01-25T08:21:43.087Z,0.71
2023-01-25T08:24:11.481Z,0.76
2023-01-25T08:26:39.592Z,0.82
2023-01-25T08:29:07.860Z,0.86
2023-01-25T08:31:36.225Z,0.90
2023-01-25T08:34:04.576Z,0.94
2023-01-25T08:36:33.033Z,0.96
2023-01-25T08:39:03.266Z,0.97
2023-01-25T08:41:32.054Z,0.97
2023-01-25T08:44:00.525Z,1.01
2023-01-25T08:46:31.354Z,1.06
2023-01-25T08:49:01.494Z,1.10
2023-01-25T08:51:31.319Z,1.15
2023-01-25T08:54:03.488Z,1.22
2023-01-25T08:56:31.802Z,1.29
2023-01-25T08:58:59.715Z,1.36
2023-01-25T09:01:27.887Z,1.41
2023-01-25T09:03:55.850Z,1.47
2023-01-25T09:06:24.243Z,1.53
2023-01-25T09:08:52.134Z,1.57
2023-01-25T09:11:21.503Z,1.60
2023-01-25T09:13:49.598Z,1.58
2023-01-25T09:16:20.311Z,1.61
2023-01-25T09:18:50.507Z,1.67
2023-01-25T09:21:19.229Z,1.72
2023-01-25T09:24:05.123Z,1.78
2023-01-25T09:26:36.276Z,1.85
2023-01-25T09:29:04.735Z,1.85
2023-01-25T09:31:32.946Z,1.87
2023-01-25T09:34:23.828Z,1.81
2023-01-25T09:36:51.898Z,1.84
2023-01-25T09:39:20.866Z,1.86
2023-01-25T09:42:06.722Z,1.89
2023-01-25T09:44:56.763Z,1.95
2023-01-25T09:47:30.952Z,1.91
2023-01-25T09:50:28.255Z,1.85
2023-01-25T09:52:59.207Z,1.90
2023-01-25T09:55:29.753Z,1.93
2023-01-25T09:58:00.531Z,1.79
2023-01-25T10:00:31.965Z,1.52
2023-01-25T10:02:59.989Z,1.62
2023-01-25T10:05:31.189Z,1.59
2023-01-25T10:07:59.278Z,1.52
2023-01-25T10:10:27.552Z,1.57
2023-01-25T10:12:55.727Z,1.57
2023-01-25T10:15:29.565Z,1.53
2023-01-25T10:18:17.641Z,1.51
2023-01-25T10:20:45.468Z,1.54
2023-01-25T10:23:25.394Z,1.57
2023-01-25T10:26:00.921Z,1.59
2023-01-25T10:28:45.087Z,1.54
2023-01-25T10:31:13.106Z,1.55
2023-01-25T10:33:43.988Z,1.52
2023-01-25T10:36:13.902Z,1.33
2023-01-25T10:38:46.246Z,1.30
2023-01-25T10:41:22.747Z,1.06
2023-01-25T10:44:10.752Z,1.09
2023-01-25T10:46:41.114Z,1.09
2023-01-25T10:49:20.896Z,1.19
2023-01-25T10:51:48.797Z,1.30
2023-01-25T10:54:17.208Z,1.38
2023-01-25T10:56:46.201Z,1.41
2023-01-25T10:59:25.030Z,1.35
2023-01-25T11:01:53.531Z,1.30
2023-01-25T11:04:29.976Z,1.43
2023-01-25T11:06:58.568Z,1.48
2023-01-25T11:09:29.504Z,1.50
2023-01-25T11:11:59.421Z,1.51
2023-01-25T11:14:28.731Z,1.53
2023-01-25T11:16:57.702Z,1.47
2023-01-25T11:19:25.687Z,1.37
2023-01-25T11:21:54.564Z,1.43
2023-01-25T11:24:25.827Z,1.36
2023-01-25T11:27:12.624Z,1.33
2023-01-25T11:29:41.211Z,1.29
2023-01-25T11:32:22.906Z,1.24
2023-01-25T11:34:51.482Z,1.28
2023-01-25T11:37:46.074Z,1.06
2023-01-25T11:40:18.760Z,1.02
2023-01-25T11:43:13.355Z,0.96
2023-01-25T11:46:01.817Z,0.97
2023-01-25T11:48:49.125Z,1.05
2023-01-25T11:51:33.800Z,1.07
2023-01-25T11:54:20.594Z,1.14
2023-01-25T11:56:59.245Z,1.12
2023-01-25T11:59:36.814Z,1.11
2023-01-25T12:02:07.239Z,0.99
2023-01-25T12:05:09.713Z,1.04
2023-01-25T12:07:50.803Z,1.06
2023-01-25T12:10:37.606Z,1.04
2023-01-25T12:13:19.191Z,1.06
2023-01-25T12:15:56.594Z,1.17
2023-01-25T12:18:33.874Z,1.18
2023-01-25T12:21:07.845Z,1.24
2023-01-25T12:23:36.674Z,1.25
2023-01-25T12:26:07.412Z,1.32
2023-01-25T12:28:53.706Z,1.33
2023-01-25T12:31:21.997Z,1.20
2023-01-25T12:34:02.608Z,1.22
2023-01-25T12:36:33.287Z,1.27
2023-01-25T12:39:01.148Z,1.28
2023-01-25T12:41:53.178Z,1.27
2023-01-25T12:44:21.255Z,1.25
2023-01-25T12:46:58.495Z,1.27
2023-01-25T12:49:43.077Z,1.25
2023-01-25T12:52:26.432Z,1.28
2023-01-25T12:54:57.026Z,1.16
2023-01-25T12:57:29.684Z,1.17
2023-01-25T13:00:10.323Z,1.17
2023-01-25T13:02:44.392Z,1.07
2023-01-25T13:05:13.717Z,1.05
2023-01-25T13:07:48.122Z,1.05
2023-01-25T13:10:19.184Z,1.03
2023-01-25T13:12:51.157Z,1.07
2023-01-25T13:15:54.941Z,1.06
2023-01-25T13:18:29.077Z,1.11
2023-01-25T13:20:58.403Z,1.12
2023-01-25T13:23:50.930Z,1.12
2023-01-25T13:26:21.986Z,1.11
2023-01-25T13:28:51.363Z,1.11
2023-01-25T13:31:50.927Z,1.09
2023-01-25T13:34:42.654Z,1.10
2023-01-25T13:37:17.981Z,1.12
2023-01-25T13:39:45.874Z,1.09
2023-01-25T13:42:13.783Z,1.08
2023-01-25T13:44:51.628Z,1.11
2023-01-25T13:47:30.431Z,1.09
2023-01-25T13:50:21.926Z,1.04
2023-01-25T13:53:00.032Z,0.97
2023-01-25T13:55:28.817Z,0.90
2023-01-25T13:58:15.015Z,0.90
2023-01-25T14:01:04.386Z,0.87
2023-01-25T14:03:35.322Z,0.82
2023-01-25T14:06:04.584Z,0.87
2023-01-25T14:08:32.904Z,0.90
2023-01-25T14:11:01.189Z,0.91
2023-01-25T14:13:29.180Z,0.90
2023-01-25T14:15:59.363Z,0.87
2023-01-25T14:18:38.801Z,0.87
2023-01-25T14:21:32.987Z,0.84
2023-01-25T14:24:09.318Z,0.83
2023-01-25T14:26:38.760Z,0.81
2023-01-25T14:29:31.785Z,0.78
2023-01-25T14:32:00.538Z,0.74
2023-01-25T14:34:28.687Z,0.72
2023-01-25T14:37:15.093Z,0.73
2023-01-25T14:39:43.057Z,0.70
2023-01-25T14:42:11.359Z,0.68
2023-01-25T14:44:39.480Z,0.64
2023-01-25T14:47:28.868Z,0.65
2023-01-25T14:50:16.989Z,0.69
2023-01-25T14:52:45.489Z,0.67
2023-01-25T14:55:14.593Z,0.67
2023-01-25T14:57:42.977Z,0.68
2023-01-25T15:00:16.983Z,0.69
2023-01-25T15:02:47.269Z,0.70
2023-01-25T15:05:16.196Z,0.72
2023-01-25T15:07:49.159Z,0.75
2023-01-25T15:10:17.148Z,0.78
2023-01-25T15:13:12.988Z,0.82
2023-01-25T15:15:51.092Z,0.86
2023-01-25T15:18:37.794Z,0.88
2023-01-25T15:21:05.776Z,0.87
2023-01-25T15:23:33.830Z,0.83
2023-01-25T15:26:03.899Z,0.78
2023-01-25T15:28:34.615Z,0.77
2023-01-25T15:31:03.883Z,0.76
2023-01-25T15:33:32.888Z,0.76
2023-01-25T15:36:00.764Z,0.79
2023-01-25T15:38:28.789Z,0.82
2023-01-25T15:41:01.469Z,0.86
2023-01-25T15:43:29.550Z,0.89
2023-01-25T15:45:58.400Z,0.91
2023-01-25T15:48:31.143Z,0.93
2023-01-25T15:50:59.222Z,0.96
2023-01-25T15:53:27.190Z,0.98
2023-01-25T15:55:58.294Z,1.00
2023-01-25T15:58:28.038Z,1.01
2023-01-25T16:00:56.225Z,1.02
2023-01-25T16:03:24.086Z,1.00
2023-01-25T16:05:56.345Z,1.00
2023-01-25T16:08:24.318Z,0.99
2023-01-25T16:10:52.502Z,0.98
2023-01-25T16:13:22.315Z,0.97
2023-01-25T16:15:52.831Z,0.97
2023-01-25T16:18:20.907Z,0.93
2023-01-25T16:20:49.196Z,0.90
2023-01-25T16:23:17.151Z,0.85
2023-01-25T16:25:48.751Z,0.82
2023-01-25T16:28:16.970Z,0.83
2023-01-25T16:30:45.378Z,0.84
2023-01-25T16:33:13.562Z,0.85
2023-01-25T16:35:41.502Z,0.85
2023-01-25T16:38:11.109Z,0.86
2023-01-25T16:40:39.959Z,0.86
2023-01-25T16:43:08.070Z,0.87
2023-01-25T16:45:36.251Z,0.87
2023-01-25T16:48:04.320Z,0.87
2023-01-25T16:50:32.211Z,0.88
2023-01-25T16:53:00.399Z,0.89
2023-01-25T16:55:28.436Z,0.90
2023-01-25T16:57:56.298Z,0.90
2023-01-25T17:00:24.377Z,0.87
2023-01-25T17:02:59.205Z,0.87
2023-01-25T17:05:32.801Z,0.86
2023-01-25T17:08:00.713Z,0.87
2023-01-25T17:10:29.969Z,0.88
2023-01-25T17:12:57.939Z,0.89
2023-01-25T17:15:25.911Z,0.91
2023-01-25T17:17:53.980Z,0.92
2023-01-25T17:20:21.964Z,0.95
2023-01-25T17:22:51.402Z,0.98
2023-01-25T17:25:19.531Z,1.00
2023-01-25T17:27:48.222Z,1.02
2023-01-25T17:30:16.390Z,1.03
2023-01-25T17:32:44.359Z,1.05
2023-01-25T17:35:12.436Z,1.07
2023-01-25T17:37:41.205Z,1.09
2023-01-25T17:40:10.363Z,1.11
2023-01-25T17:42:38.698Z,1.12
2023-01-25T17:45:07.298Z,1.13
2023-01-25T17:47:35.758Z,1.15
2023-01-25T17:50:04.159Z,1.17
2023-01-25T17:52:32.118Z,1.19
2023-01-25T17:55:00.614Z,1.20
2023-01-25T17:57:29.166Z,1.20
2023-01-25T17:59:57.244Z,1.18
2023-01-25T18:02:25.223Z,1.17
2023-01-25T18:04:53.587Z,1.16
2023-01-25T18:07:21.534Z,1.14
2023-01-25T18:09:49.632Z,1.13
2023-01-25T18:12:20.519Z,1.15
2023-01-25T18:14:48.964Z,1.14
2023-01-25T18:17:16.924Z,1.14
2023-01-25T18:19:46.135Z,1.16
2023-01-25T18:22:14.192Z,1.18
2023-01-25T18:24:44.161Z,1.13
2023-01-25T18:27:12.058Z,1.13
2023-01-25T18:29:40.733Z,1.14
2023-01-25T18:32:08.752Z,1.15
2023-01-25T18:34:36.799Z,1.16
2023-01-25T18:37:19.001Z,1.17
2023-01-25T18:39:51.298Z,1.18
2023-01-25T18:42:20.172Z,1.18
2023-01-25T18:44:50.794Z,1.18
2023-01-25T18:47:20.103Z,1.16
2023-01-25T18:49:49.518Z,1.13
2023-01-25T18:52:18.500Z,1.13
2023-01-25T18:54:46.994Z,1.10
2023-01-25T18:57:15.434Z,1.09
2023-01-25T18:59:44.052Z,1.09
2023-01-25T19:02:13.017Z,1.10
2023-01-25T19:04:41.407Z,1.10
2023-01-25T19:07:09.386Z,1.10
2023-01-25T19:09:37.755Z,1.09
2023-01-25T19:12:05.730Z,1.08
2023-01-25T19:14:33.698Z,1.06
2023-01-25T19:17:01.563Z,1.05
2023-01-25T19:19:32.344Z,1.04
2023-01-25T19:22:01.182Z,1.04
2023-01-25T19:24:29.700Z,1.04
2023-01-25T19:26:57.713Z,1.04
2023-01-25T19:29:25.710Z,1.02
2023-01-25T19:31:53.832Z,1.01
2023-01-25T19:34:21.863Z,0.98
2023-01-25T19:36:50.340Z,0.95
2023-01-25T19:39:18.514Z,0.95
2023-01-25T19:41:46.445Z,0.96
2023-01-25T19:44:15.060Z,0.97
2023-01-25T19:46:43.589Z,0.96
2023-01-25T19:49:13.271Z,0.95
2023-01-25T19:51:44.447Z,0.94
2023-01-25T19:54:15.907Z,0.95
2023-01-25T19:56:47.519Z,0.94
2023-01-25T19:59:19.717Z,0.93
2023-01-25T20:01:48.392Z,0.92
2023-01-25T20:04:19.807Z,0.90
2023-01-25T20:06:48.907Z,0.89
2023-01-25T20:09:18.713Z,0.89
2023-01-25T20:11:47.652Z,0.88
2023-01-25T20:14:15.889Z,0.88
2023-01-25T20:16:44.159Z,0.88
2023-01-25T20:19:12.377Z,0.90
2023-01-25T20:21:40.526Z,0.91
2023-01-25T20:24:10.167Z,0.91
2023-01-25T20:26:39.694Z,0.91
2023-01-25T20:29:07.757Z,0.90
2023-01-25T20:31:42.703Z,0.90
2023-01-25T20:34:12.244Z,0.89
2023-01-25T20:36:40.723Z,0.88
2023-01-25T20:39:09.002Z,0.86
2023-01-25T20:41:36.899Z,0.83
2023-01-25T20:44:08.643Z,0.83
2023-01-25T20:46:38.807Z,0.84
2023-01-25T20:49:08.044Z,0.85
2023-01-25T20:51:36.439Z,0.86
2023-01-25T20:54:04.501Z,0.86
2023-01-25T20:56:32.868Z,0.88
2023-01-25T20:59:01.061Z,0.88
2023-01-25T21:01:30.462Z,0.88
2023-01-25T21:03:58.321Z,0.88
2023-01-25T21:06:28.741Z,0.87
2023-01-25T21:08:56.865Z,0.85
2023-01-25T21:11:26.055Z,0.86
2023-01-25T21:13:58.450Z,0.86
2023-01-25T21:16:26.908Z,0.87
2023-01-25T21:18:57.525Z,0.87
2023-01-25T21:21:27.845Z,0.86
2023-01-25T21:23:57.936Z,0.82
2023-01-25T21:26:27.471Z,0.80
2023-01-25T21:28:55.295Z,0.76
2023-01-25T21:31:32.974Z,0.75
2023-01-25T21:34:01.911Z,0.74
2023-01-25T21:36:30.436Z,0.74
2023-01-25T21:38:58.672Z,0.75
2023-01-25T21:41:29.629Z,0.75
2023-01-25T21:44:17.353Z,0.76
2023-01-25T21:47:06.013Z,0.79
2023-01-25T21:49:52.691Z,0.80
2023-01-25T21:52:20.647Z,0.82
2023-01-25T21:54:48.653Z,0.83
2023-01-25T21:57:16.605Z,0.83
2023-01-25T21:59:44.573Z,0.83
2023-01-25T22:02:14.249Z,0.83
2023-01-25T22:04:42.469Z,0.83
2023-01-25T22:07:10.737Z,0.84
2023-01-25T22:09:38.805Z,0.85
2023-01-25T22:12:06.882Z,0.85
2023-01-25T22:14:35.272Z,0.86
2023-01-25T22:17:03.353Z,0.86
2023-01-25T22:19:31.291Z,0.86
2023-01-25T22:21:59.281Z,0.86
2023-01-25T22:24:27.254Z,0.86
2023-01-25T22:26:58.589Z,0.86
2023-01-25T22:29:26.763Z,0.85
2023-01-25T22:31:54.886Z,0.85
2023-01-25T22:34:22.932Z,0.85
2023-01-25T22:36:50.868Z,0.86
2023-01-25T22:39:18.737Z,0.86
2023-01-25T22:41:46.726Z,0.86
2023-01-25T22:44:15.000Z,0.87
2023-01-25T22:46:42.844Z,0.88
2023-01-25T22:49:10.710Z,0.88
2023-01-25T22:51:38.789Z,0.87
2023-01-25T22:54:06.861Z,0.87
2023-01-25T22:56:34.854Z,0.86
2023-01-25T22:59:02.906Z,0.85
2023-01-25T23:01:32.096Z,0.87
2023-01-25T23:04:00.994Z,0.86
2023-01-25T23:06:34.320Z,0.85
2023-01-25T23:09:04.190Z,0.84
2023-01-25T23:11:35.775Z,0.83
2023-01-25T23:14:23.695Z,0.82
2023-01-25T23:16:51.663Z,0.80
2023-01-25T23:19:19.626Z,0.80
2023-01-25T23:21:47.596Z,0.79
2023-01-25T23:24:15.646Z,0.79
2023-01-25T23:26:46.610Z,0.78
2023-01-25T23:29:14.913Z,0.76
2023-01-25T23:31:42.891Z,0.75
2023-01-25T23:34:11.436Z,0.75
2023-01-25T23:36:39.919Z,0.75
2023-01-25T23:39:08.230Z,0.75
2023-01-25T23:41:36.170Z,0.75
2023-01-25T23:44:04.138Z,0.74
2023-01-25T23:46:32.011Z,0.74
2023-01-25T23:49:00.094Z,0.73
2023-01-25T23:51:28.050Z,0.73
2023-01-25T23:53:57.958Z,0.72
2023-01-25T23:56:25.926Z,0.71
2023-01-25T23:58:54.100Z,0.71
